Terminal Aerodrome Forecast
Issued by NWS Wilmington, OH

Home | Current Version | Previous Version | Text Only | Print | Product List | Glossary On
Versions: 1 2 3 4 5 6 7 8 9 10 11 12 13 14 15 16 17 18 19 20 21 22 23 24 25 26 27 28 29 30 31 32 33 34 35 36 37 38 39 40 41 42 43 44 45 46 47 48
349
FTUS41 KILN 182331
TAFCVG
TAF
KCVG 182331Z 1900/2006 19009KT P6SM VCSH BKN060 BKN170 OVC230
     FM190500 04011KT P6SM SHRA OVC025
     FM191500 34012G22KT P6SM VCSH OVC008
     FM192100 36014G24KT P6SM OVC008
     FM192300 36020G31KT P6SM -SHRA OVC015=

USA.gov is the U.S. government's official web portal to all federal, state and local government web resources and services.